首页
METAR-TAF:

METAR-TAF

机场 :

塔什干国际机场

塔什干, 乌兹别克斯坦

纬度: 41-16N, 经度: 069-16E, 海拔: 489米

当前天气观测

该预报发布于38分钟前的02:30 UTC
风速4节,风向东转东北,在东转东南之间变化
温度 1°C
湿度 100%
气压 1031 hPa
能見度: 7000
散云层高于2300英尺

METAR: UTTT 230230Z 07004KT 360V110 7000 SCT023 01/01 Q1031 R08L/29//50 NOSIG

时间: 08:08 (03:08 UTC)

预报

该预报发布于4小时和8分钟前的23:00 UTC
预报有效从23日的 00点(UTC)到 23日的 24点(UTC)
风速12节,风向西转西北
能見度: 4000
多云层高于700英尺
多云层高于2000英尺, 积雨云.
阴天层高于10000英尺
小阵雨, 轻雾
短暂存在
从 23日的 00点(UTC)到 23日的 04点(UTC)
风速2节,风向多变
能見度: 0600
层高于200英尺
小雪, 冻雾
短暂存在
从 23日的 13点(UTC)到 23日的 24点(UTC)
风速10节,风向,有时为20节阵风
能見度: 1500
多云层高于300英尺
阴天层高于1500英尺, 积雨云.
阵雪, 轻雾

TAF: UTTT 222300Z 2300/2324 29012KT 4000 -SHRA BR BKN007 BKN020CB OVC100 TEMPO 2300/2304 VRB02KT 0600 -SN FZFG VV002 TEMPO 2313/2324 35010G20KT 1500 SHSN BR BKN003 OVC015CB

超过4000个机场的气象观测和天气预报(METAR&TAF报告)。

可查询的气象台以黄色和红色小点在地图上表示。

将鼠标移到小点上方,可查看气象台名称。

然后点击查看天气观测和预报。

如需切换地图:点击带黑十字的绿色按钮放大地图;点击带横线的绿色按钮缩小地图;或者点击绿色箭头查看邻近地区的地图。


METAR-TAF: